createdAt,value
2018-12-23T00:04:32.100Z,13.53
2018-12-23T00:09:47.437Z,14.37
2018-12-23T00:14:58.270Z,12.07
2018-12-23T00:20:12.518Z,15.50
2018-12-23T00:25:25.186Z,14.38
2018-12-23T00:30:35.165Z,17.40
2018-12-23T00:35:45.305Z,11.03
2018-12-23T00:40:53.598Z,14.00
2018-12-23T00:46:08.803Z,11.83
2018-12-23T00:51:18.564Z,14.68
2018-12-23T00:56:31.144Z,19.40
2018-12-23T01:01:41.597Z,17.93
2018-12-23T01:06:49.001Z,14.87
2018-12-23T01:11:59.815Z,19.13
2018-12-23T01:17:12.579Z,14.87
2018-12-23T01:22:26.261Z,13.07
2018-12-23T01:27:35.606Z,17.43
2018-12-23T01:32:48.322Z,12.90
2018-12-23T01:37:58.151Z,13.83
2018-12-23T01:43:08.133Z,16.17
2018-12-23T01:48:20.646Z,15.80
2018-12-23T01:53:30.479Z,18.57
2018-12-23T01:58:46.115Z,19.30
2018-12-23T02:03:56.274Z,18.67
2018-12-23T02:09:05.028Z,15.20
2018-12-23T02:14:15.016Z,17.20
2018-12-23T02:19:23.985Z,17.70
2018-12-23T02:24:36.935Z,19.50
2018-12-23T02:29:47.266Z,18.83
2018-12-23T02:34:59.028Z,19.10
2018-12-23T02:40:13.835Z,28.47
2018-12-23T02:45:25.546Z,19.80
2018-12-23T02:50:38.150Z,22.50
2018-12-23T02:55:44.982Z,26.93
2018-12-23T03:00:58.521Z,34.37
2018-12-23T03:06:10.280Z,31.73
2018-12-23T03:11:22.030Z,27.52
2018-12-23T03:16:33.255Z,30.47
2018-12-23T03:21:47.898Z,33.53
2018-12-23T03:27:00.613Z,33.40
2018-12-23T03:32:11.522Z,33.30
2018-12-23T03:37:21.636Z,35.20
2018-12-23T03:42:34.444Z,33.00
2018-12-23T03:47:42.543Z,39.77
2018-12-23T03:52:55.291Z,39.10
2018-12-23T03:58:04.690Z,33.53
2018-12-23T04:03:13.303Z,32.97
2018-12-23T04:08:25.006Z,35.30
2018-12-23T04:13:37.701Z,39.13
2018-12-23T04:18:45.098Z,36.23
2018-12-23T04:23:55.101Z,41.67
2018-12-23T04:29:05.949Z,40.17
2018-12-23T04:34:13.704Z,38.53
2018-12-23T04:39:23.141Z,36.17
2018-12-23T04:44:30.941Z,37.23
2018-12-23T04:49:42.778Z,33.43
2018-12-23T04:54:56.230Z,35.90
2018-12-23T05:00:07.022Z,37.63
2018-12-23T05:05:20.564Z,42.07
2018-12-23T05:10:35.461Z,47.67
2018-12-23T05:15:45.349Z,49.50
2018-12-23T05:21:50.348Z,52.73
2018-12-23T05:27:04.069Z,53.27
2018-12-23T05:32:12.492Z,50.60
2018-12-23T05:37:25.059Z,49.67
2018-12-23T05:42:37.925Z,53.30
2018-12-23T05:47:52.048Z,53.93
2018-12-23T05:52:59.406Z,41.53
2018-12-23T05:58:11.343Z,56.07
2018-12-23T06:03:19.697Z,52.25
2018-12-23T06:08:32.105Z,45.80
2018-12-23T06:13:40.261Z,52.83
2018-12-23T06:18:51.093Z,43.67
2018-12-23T06:24:00.368Z,50.67
2018-12-23T06:29:10.949Z,47.48
2018-12-23T06:34:22.628Z,48.10
2018-12-23T06:39:30.621Z,56.60
2018-12-23T06:44:42.284Z,45.47
2018-12-23T06:49:52.173Z,49.03
2018-12-23T06:55:02.120Z,40.97
2018-12-23T07:00:10.875Z,55.87
2018-12-23T07:05:24.453Z,50.03
2018-12-23T07:10:39.685Z,44.47
2018-12-23T07:15:51.300Z,46.80
2018-12-23T07:21:01.368Z,49.23
2018-12-23T07:26:15.844Z,45.23
2018-12-23T07:31:24.300Z,38.13
2018-12-23T07:36:32.001Z,46.97
2018-12-23T07:41:43.583Z,43.15
2018-12-23T07:46:55.096Z,46.43
2018-12-23T07:52:06.696Z,43.43
2018-12-23T07:57:15.283Z,41.37
2018-12-23T08:02:26.915Z,44.40
2018-12-23T08:07:37.638Z,52.07
2018-12-23T08:12:50.291Z,45.00
2018-12-23T08:18:00.143Z,47.00
2018-12-23T08:23:14.769Z,51.20
2018-12-23T08:28:27.348Z,50.85
2018-12-23T08:33:42.692Z,54.87
2018-12-23T08:38:55.305Z,51.83
2018-12-23T08:44:08.997Z,55.07
2018-12-23T08:49:20.311Z,60.47
2018-12-23T08:54:34.469Z,60.80
2018-12-23T08:59:47.089Z,69.03
2018-12-23T09:04:59.661Z,53.77
2018-12-23T09:10:06.705Z,63.33
2018-12-23T09:15:16.550Z,61.40
2018-12-23T09:20:27.400Z,71.20
2018-12-23T09:25:33.602Z,77.83
2018-12-23T09:30:45.445Z,65.28
2018-12-23T09:35:55.300Z,71.63
2018-12-23T09:41:09.655Z,66.80
2018-12-23T09:46:17.817Z,70.12
2018-12-23T09:51:30.452Z,84.73
2018-12-23T09:56:47.339Z,68.20
2018-12-23T10:02:02.874Z,70.33
2018-12-23T10:07:11.871Z,74.97
2018-12-23T10:12:24.551Z,71.33
2018-12-23T10:17:37.774Z,80.03
2018-12-23T10:22:46.862Z,77.37
2018-12-23T10:27:55.630Z,62.80
2018-12-23T10:33:05.732Z,66.03
2018-12-23T10:38:18.722Z,67.77
2018-12-23T10:43:27.919Z,75.60
2018-12-23T10:48:40.709Z,73.47
2018-12-23T10:53:51.945Z,60.43
2018-12-23T10:59:02.742Z,60.03
2018-12-23T11:04:15.043Z,60.37
2018-12-23T11:09:27.159Z,57.30
2018-12-23T11:14:41.477Z,54.03
2018-12-23T11:19:49.693Z,56.13
2018-12-23T11:25:04.050Z,60.30
2018-12-23T11:30:17.063Z,57.13
2018-12-23T11:35:31.077Z,58.23
2018-12-23T11:40:42.310Z,52.67
2018-12-23T11:45:56.115Z,58.33
2018-12-23T11:51:10.444Z,53.67
2018-12-23T11:56:21.133Z,61.05
2018-12-23T12:01:31.819Z,39.57
2018-12-23T12:06:43.758Z,37.23
2018-12-23T12:11:56.466Z,35.97
2018-12-23T12:17:07.585Z,38.17
2018-12-23T12:22:19.271Z,41.30
2018-12-23T12:27:28.741Z,35.30
2018-12-23T12:32:43.348Z,31.17
2018-12-23T12:37:57.189Z,25.20
2018-12-23T12:43:09.009Z,20.70
2018-12-23T12:48:19.163Z,22.53
2018-12-23T12:53:29.763Z,27.37
2018-12-23T12:58:37.863Z,17.40
2018-12-23T13:03:52.168Z,21.37
2018-12-23T13:09:05.063Z,19.13
2018-12-23T13:14:17.741Z,16.63
2018-12-23T13:19:30.442Z,16.67
2018-12-23T13:24:42.439Z,12.83
2018-12-23T13:29:55.747Z,11.83
2018-12-23T13:35:07.399Z,11.00
2018-12-23T13:40:29.903Z,15.37
2018-12-23T13:46:22.986Z,12.30
2018-12-23T13:51:52.950Z,14.37
2018-12-23T13:57:23.706Z,13.83
2018-12-23T14:03:01.450Z,13.13
2018-12-23T14:08:31.943Z,14.23
2018-12-23T14:13:44.465Z,13.30
2018-12-23T14:18:57.269Z,14.27
2018-12-23T14:24:07.456Z,15.53
2018-12-23T14:29:18.030Z,17.37
2018-12-23T14:34:32.517Z,12.82
2018-12-23T14:39:45.524Z,18.10
2018-12-23T14:44:58.915Z,15.77
2018-12-23T14:50:13.292Z,12.53
2018-12-23T14:55:20.696Z,15.27
2018-12-23T15:00:29.646Z,18.10
2018-12-23T15:05:44.207Z,11.63
2018-12-23T15:10:51.975Z,16.83
2018-12-23T15:16:04.248Z,17.40
2018-12-23T15:21:17.095Z,21.83
2018-12-23T15:26:33.479Z,26.30
2018-12-23T15:31:49.733Z,21.73
2018-12-23T15:37:00.456Z,33.90
2018-12-23T15:42:10.755Z,25.83
2018-12-23T15:47:21.604Z,24.40
2018-12-23T15:52:33.202Z,24.90
2018-12-23T15:57:39.517Z,21.90
2018-12-23T16:02:49.448Z,24.13
2018-12-23T16:08:04.990Z,37.73
2018-12-23T16:13:11.908Z,31.63
2018-12-23T16:18:24.749Z,56.92
2018-12-23T16:23:39.318Z,56.10
2018-12-23T16:28:48.421Z,45.63
2018-12-23T16:34:00.100Z,50.37
2018-12-23T16:39:16.901Z,30.43
2018-12-23T16:44:26.721Z,48.75
2018-12-23T16:49:35.083Z,42.87
2018-12-23T16:54:44.104Z,50.80
2018-12-23T16:59:56.764Z,52.73
2018-12-23T17:05:08.564Z,61.30
2018-12-23T17:10:22.052Z,73.63
2018-12-23T17:15:32.945Z,47.50
2018-12-23T17:20:45.481Z,43.83
2018-12-23T17:25:56.200Z,27.20
2018-12-23T17:31:05.189Z,16.50
2018-12-23T17:36:14.669Z,6.93
2018-12-23T17:41:26.308Z,8.43
2018-12-23T17:46:37.988Z,6.03
2018-12-23T17:51:49.647Z,6.93
2018-12-23T17:57:03.226Z,4.70
2018-12-23T18:02:10.658Z,5.60
2018-12-23T18:07:22.287Z,6.30
2018-12-23T18:12:34.445Z,10.60
2018-12-23T18:17:45.137Z,7.70
2018-12-23T18:22:58.279Z,8.03
2018-12-23T18:28:09.136Z,6.73
2018-12-23T18:33:22.630Z,7.77
2018-12-23T18:38:30.631Z,5.50
2018-12-23T18:43:39.174Z,6.60
2018-12-23T18:48:52.615Z,7.80
2018-12-23T18:54:01.945Z,9.20
2018-12-23T18:59:10.867Z,10.10
2018-12-23T19:04:21.272Z,10.85
2018-12-23T19:09:40.546Z,9.10
2018-12-23T19:15:22.770Z,9.63
2018-12-23T19:20:51.968Z,9.63
2018-12-23T19:26:54.573Z,10.43
2018-12-23T19:32:40.643Z,12.73
2018-12-23T19:38:11.138Z,10.90
2018-12-23T19:44:13.507Z,10.82
2018-12-23T19:50:01.132Z,14.83
2018-12-23T19:55:29.705Z,12.27
2018-12-23T20:01:08.392Z,12.70
2018-12-23T20:06:47.156Z,11.23
2018-12-23T20:12:33.679Z,14.23
2018-12-23T20:18:01.781Z,10.37
2018-12-23T20:23:53.947Z,12.10
2018-12-23T20:29:55.943Z,11.77
2018-12-23T20:35:41.164Z,12.17
2018-12-23T20:41:31.141Z,11.20
2018-12-23T20:47:11.055Z,9.40
2018-12-23T20:52:47.781Z,9.55
2018-12-23T20:58:37.260Z,10.03
2018-12-23T21:04:27.235Z,11.50
2018-12-23T21:10:11.654Z,9.45
2018-12-23T21:15:58.508Z,8.07
2018-12-23T21:21:42.494Z,7.50
2018-12-23T21:27:27.654Z,8.13
2018-12-23T21:33:20.681Z,10.40
2018-12-23T21:38:59.405Z,7.83
2018-12-23T21:44:55.755Z,11.53
2018-12-23T21:50:36.131Z,9.70
2018-12-23T21:56:22.567Z,9.50
2018-12-23T22:01:54.230Z,12.10
2018-12-23T22:07:58.335Z,12.40
2018-12-23T22:13:32.493Z,11.13
2018-12-23T22:18:42.627Z,11.23
2018-12-23T22:23:52.041Z,12.90
2018-12-23T22:29:08.992Z,9.57
2018-12-23T22:34:18.017Z,9.43
2018-12-23T22:39:29.767Z,8.63
2018-12-23T22:44:41.574Z,6.70
2018-12-23T22:49:51.593Z,8.20
2018-12-23T22:55:03.254Z,7.40
2018-12-23T23:00:14.301Z,11.30
2018-12-23T23:05:31.732Z,7.13
2018-12-23T23:10:45.218Z,7.70
2018-12-23T23:15:56.304Z,8.97
2018-12-23T23:21:13.359Z,7.50
2018-12-23T23:26:25.120Z,8.97
2018-12-23T23:31:33.125Z,6.43
2018-12-23T23:36:43.206Z,5.50
2018-12-23T23:41:58.557Z,7.10
2018-12-23T23:47:04.081Z,7.00
2018-12-23T23:52:13.191Z,6.60
2018-12-23T23:57:27.619Z,6.73
